Time;durP1;ratioP1;P1;durP2;ratioP2;P2;SDS_P1;SDS_P2;PMS_P1;PMS_P2;Temp;Humidity;BMP_temperature;BMP_pressure;BME280_temperature;BME280_humidity;BME280_pressure;Samples;Min_cycle;Max_cycle;Signal;HPM_P1;HPM_P2
2023/04/16 00:00:05;;;;;;;;;;;;;;;5.08;100.00;99805.53;5082927;28;19920;-87
2023/04/16 00:02:31;;;;;;;;;;;;;;;5.07;100.00;99801.16;5081827;28;19950;-86
2023/04/16 00:04:56;;;;;;;;;;;;;;;5.05;100.00;99795.94;5085155;28;20011;-85
2023/04/16 00:07:21;;;;;;;;;;;;;;;5.03;100.00;99802.13;5083912;28;19920;-85
2023/04/16 00:09:47;;;;;;;;;;;;;;;5.03;100.00;99796.88;5086176;28;20015;-86
2023/04/16 00:12:12;;;;;;;;;;;;;;;5.02;100.00;99803.03;5082944;28;19915;-85
2023/04/16 00:14:37;;;;;;;;;;;;;;;5.04;100.00;99801.22;5084440;28;19920;-85
2023/04/16 00:17:03;;;;;;;;;;;;;;;4.99;100.00;99793.44;5084158;28;19927;-86
2023/04/16 00:19:28;;;;;;;;;;;;;;;5.04;100.00;99788.09;5079915;28;20331;-84
2023/04/16 00:21:56;;;;;;;;;;;;;;;5.00;100.00;99797.78;5079572;28;19947;-84
2023/04/16 00:24:21;;;;;;;;;;;;;;;4.98;100.00;99789.09;5084965;28;20363;-84
2023/04/16 00:26:46;;;;;;;;;;;;;;;4.98;100.00;99790.84;5086441;28;19919;-88
2023/04/16 00:29:11;;;;;;;;;;;;;;;5.02;100.00;99801.25;5083141;28;20369;-87
2023/04/16 00:31:37;;;;;;;;;;;;;;;5.00;100.00;99797.78;5082497;28;19923;-93
2023/04/16 00:34:02;;;;;;;;;;;;;;;4.99;100.00;99800.44;5083674;28;19931;-87
2023/04/16 00:36:28;;;;;;;;;;;;;;;5.02;100.00;99800.41;5084479;28;19989;-85
2023/04/16 00:38:54;;;;;;;;;;;;;;;4.98;100.00;99796.97;5080964;28;19924;-85
2023/04/16 00:41:19;;;;;;;;;;;;;;;5.02;100.00;99800.41;5082421;28;19920;-90
2023/04/16 00:43:45;;;;;;;;;;;;;;;5.02;100.00;99801.25;5077937;28;19920;-85
2023/04/16 00:46:10;;;;;;;;;;;;;;;5.00;100.00;99807.44;5081464;28;19928;-88
2023/04/16 02:28:25;;;;;;;;;;;;;;;5.02;100.00;99842.41;5249447;23;19991;-83
2023/04/16 02:30:50;;;;;;;;;;;;;;;5.04;100.00;99840.63;5025237;28;20279;-83
2023/04/16 02:33:15;;;;;;;;;;;;;;;4.98;100.00;99830.22;5042550;28;19964;-84
2023/04/16 02:35:41;;;;;;;;;;;;;;;5.04;100.00;99831.00;5024642;28;19955;-90
2023/04/16 02:38:06;;;;;;;;;;;;;;;4.98;100.00;99839.00;5025147;28;20007;-88
2023/04/16 02:40:32;;;;;;;;;;;;;;;5.01;100.00;99838.94;5024971;28;19921;-87
2023/04/16 02:42:57;;;;;;;;;;;;;;;5.08;100.00;99834.41;5023230;28;19918;-87
2023/04/16 02:45:22;;;;;;;;;;;;;;;5.09;100.00;99838.78;5024458;28;19923;-86
2023/04/16 02:47:48;;;;;;;;;;;;;;;5.11;100.00;99837.00;5024904;28;20023;-89
2023/04/16 02:50:13;;;;;;;;;;;;;;;5.16;100.00;99834.28;5024502;28;19964;-88
2023/04/16 02:52:39;;;;;;;;;;;;;;;5.18;100.00;99842.97;5025081;28;19961;-88
2023/04/16 02:55:05;;;;;;;;;;;;;;;5.16;100.00;99837.75;5042225;28;19917;-88
2023/04/16 02:57:30;;;;;;;;;;;;;;;5.14;100.00;99836.94;5040595;28;20008;-86
2023/04/16 02:59:55;;;;;;;;;;;;;;;5.13;100.00;99835.19;5042295;28;19921;-86
2023/04/16 03:02:20;;;;;;;;;;;;;;;5.14;100.00;99838.66;5042556;28;19924;-86
2023/04/16 03:04:46;;;;;;;;;;;;;;;5.17;100.00;99833.34;5041923;28;19917;-86
2023/04/16 03:07:12;;;;;;;;;;;;;;;5.21;100.00;99833.25;5041795;28;19921;-85
2023/04/16 03:09:38;;;;;;;;;;;;;;;5.21;100.00;99832.41;5042791;28;19963;-84
2023/04/16 03:12:03;;;;;;;;;;;;;;;5.24;100.00;99845.50;5040517;28;19921;-87
2023/04/16 03:14:29;;;;;;;;;;;;;;;5.21;100.00;99843.78;5042414;28;19916;-87
2023/04/16 03:16:54;;;;;;;;;;;;;;;5.20;100.00;99842.06;5042063;28;19917;-86
2023/04/16 03:19:19;;;;;;;;;;;;;;;5.21;100.00;99841.16;5041842;28;19928;-89
2023/04/16 03:21:45;;;;;;;;;;;;;;;5.23;100.00;99846.38;5041752;28;19972;-87
2023/04/16 03:24:10;;;;;;;;;;;;;;;5.20;100.00;99841.19;5024336;28;20267;-88
2023/04/16 03:26:35;;;;;;;;;;;;;;;5.22;100.00;99837.63;5040728;28;19917;-87
2023/04/16 03:29:03;;;;;;;;;;;;;;;5.27;100.00;99843.66;5041517;28;19968;-86
2023/04/16 03:31:28;;;;;;;;;;;;;;;5.26;100.00;99848.94;5042518;28;20394;-87
2023/04/16 03:33:54;;;;;;;;;;;;;;;5.25;100.00;99845.47;5041717;28;20012;-87
2023/04/16 03:36:19;;;;;;;;;;;;;;;5.30;100.00;99841.84;5041841;28;19921;-87
2023/04/16 03:38:45;;;;;;;;;;;;;;;5.32;100.00;99845.34;5041942;28;19924;-87
2023/04/16 03:41:10;;;;;;;;;;;;;;;5.32;100.00;99842.72;5041617;28;19963;-86
2023/04/16 03:43:35;;;;;;;;;;;;;;;5.35;100.00;99853.16;5040429;28;19917;-87
2023/04/16 03:46:00;;;;;;;;;;;;;;;5.40;100.00;99848.66;5041910;28;19917;-88
2023/04/16 03:48:26;;;;;;;;;;;;;;;5.36;100.00;99849.63;5041842;28;20027;-87
2023/04/16 03:50:51;;;;;;;;;;;;;;;5.35;100.00;99855.78;5041361;28;19917;-87
2023/04/16 03:53:16;;;;;;;;;;;;;;;5.41;100.00;99851.25;5041480;28;20346;-87
2023/04/16 03:55:42;;;;;;;;;;;;;;;5.41;100.00;99855.66;5042061;28;19923;-89
2023/04/16 03:58:07;;;;;;;;;;;;;;;5.39;100.00;99846.94;5040528;28;19920;-89
2023/04/16 12:56:03;;;;;;;;;;;;;;;8.20;100.00;100041.09;5158713;22;19933;-86
2023/04/16 12:58:40;;;;;;;;;;;;;;;8.20;100.00;100051.66;5027837;28;19921;-87
2023/04/16 13:01:34;;;;;;;;;;;;;;;8.23;100.00;100048.88;5042851;28;20486;-87
2023/04/16 13:03:51;;;;;;;;;;;;;;;8.21;100.00;100042.78;5040565;28;19918;-86
2023/04/16 13:06:19;;;;;;;;;;;;;;;8.23;100.00;100048.03;5044566;28;19923;-86
2023/04/16 13:08:45;;;;;;;;;;;;;;;8.28;100.00;100048.75;5042904;28;20023;-86
2023/04/16 13:11:10;;;;;;;;;;;;;;;8.25;100.00;100052.38;5044235;28;20342;-87
2023/04/16 13:13:54;;;;;;;;;;;;;;;8.26;100.00;100056.72;5044058;28;19921;-85
2023/04/16 13:16:22;;;;;;;;;;;;;;;8.29;100.00;100050.50;5044159;28;19918;-87
2023/04/16 13:18:50;;;;;;;;;;;;;;;8.25;100.00;100049.72;5043946;28;19928;-89
2023/04/16 13:21:15;;;;;;;;;;;;;;;8.28;100.00;100054.03;5044071;28;19924;-87
2023/04/16 13:23:46;;;;;;;;;;;;;;;8.31;100.00;100048.66;5025372;28;19917;-87
2023/04/16 13:26:13;;;;;;;;;;;;;;;8.29;100.00;100045.22;5026260;28;19916;-86
2023/04/16 13:28:52;;;;;;;;;;;;;;;8.30;100.00;100046.97;5044133;28;19971;-87
2023/04/16 13:31:22;;;;;;;;;;;;;;;8.30;100.00;100045.19;5044128;28;19920;-87
2023/04/16 13:33:50;;;;;;;;;;;;;;;8.34;100.00;100048.59;5026024;28;20360;-86
2023/04/16 13:39:18;;;;;;;;;;;;;;;8.43;100.00;100058.03;5042744;28;20338;-90
2023/04/16 13:41:43;;;;;;;;;;;;;;;8.45;100.00;100056.22;5044388;28;19917;-86
2023/04/16 13:44:09;;;;;;;;;;;;;;;8.48;100.00;100049.06;5043477;28;19913;-87
2023/04/16 13:46:47;;;;;;;;;;;;;;;;;;;;;
2023/04/16 13:49:12;;;;;;;;;;;;;;;8.40;100.00;100048.41;5043663;28;20274;-89
2023/04/16 13:51:41;;;;;;;;;;;;;;;8.45;100.00;100051.81;5043914;28;19921;-87
2023/04/16 13:54:06;;;;;;;;;;;;;;;8.50;100.00;100049.91;5024857;28;20200;-91
2023/04/16 13:56:52;;;;;;;;;;;;;;;8.52;100.00;100047.19;5043410;28;19929;-88
2023/04/16 13:59:56;;;;;;;;;;;;;;;;;;;;;
2023/04/16 14:02:25;;;;;;;;;;;;;;;8.57;100.00;100057.63;5043100;28;19931;-88
2023/04/16 14:04:50;;;;;;;;;;;;;;;8.58;100.00;100052.28;5043595;28;19971;-88
2023/04/16 14:07:25;;;;;;;;;;;;;;;8.56;100.00;100054.13;5041776;28;19944;-87
2023/04/16 14:09:53;;;;;;;;;;;;;;;8.52;100.00;100042.78;5024114;28;19939;-87
2023/04/16 14:12:36;;;;;;;;;;;;;;;8.51;100.00;100053.41;5042885;28;19917;-87
2023/04/16 14:15:05;;;;;;;;;;;;;;;8.57;100.00;100047.94;5043463;28;19982;-88
2023/04/16 14:17:43;;;;;;;;;;;;;;;8.60;100.00;100047.84;5024969;28;19917;-87
2023/04/16 14:20:17;;;;;;;;;;;;;;;8.61;100.00;100044.28;5042687;28;19925;-87
2023/04/16 14:22:53;;;;;;;;;;;;;;;8.63;100.00;100042.47;5041898;28;19935;-87
2023/04/16 14:25:21;;;;;;;;;;;;;;;8.64;100.00;100056.53;5024525;28;20328;-85
2023/04/16 14:28:15;;;;;;;;;;;;;;;8.65;100.00;100053.00;5025481;28;19962;-89
2023/04/16 14:30:48;;;;;;;;;;;;;;;8.65;100.00;100059.13;5042593;28;20003;-89
2023/04/16 14:36:19;;;;;;;;;;;;;;;8.74;100.00;100057.97;5001080;28;19921;-86
2023/04/16 14:38:46;;;;;;;;;;;;;;;8.72;100.00;100052.72;5024268;28;20273;-86
2023/04/16 14:41:14;;;;;;;;;;;;;;;8.68;100.00;100053.75;5042438;28;20763;-95
2023/04/16 14:43:45;;;;;;;;;;;;;;;8.71;100.00;100052.78;5042280;28;19921;-87
2023/04/16 14:46:16;;;;;;;;;;;;;;;8.70;100.00;100056.34;5032811;28;20363;-86
2023/04/16 14:48:44;;;;;;;;;;;;;;;8.71;100.00;100058.06;5024753;28;19959;-87
2023/04/16 14:51:26;;;;;;;;;;;;;;;8.70;100.00;100057.22;5042032;28;19917;-86
2023/04/16 14:54:18;;;;;;;;;;;;;;;8.72;100.00;100050.09;5040879;28;19959;-87
2023/04/16 14:57:05;;;;;;;;;;;;;;;8.74;100.00;100050.03;5042163;28;20295;-86
2023/04/16 14:59:31;;;;;;;;;;;;;;;8.77;100.00;100057.03;5042336;28;19917;-86
2023/04/16 15:01:57;;;;;;;;;;;;;;;7.27;100.00;100058.50;5024402;28;20449;-86
2023/04/16 15:04:23;;;;;;;;;;;;;;;6.65;100.00;100065.25;5025078;28;19917;-86
2023/04/16 15:06:51;;;;;;;;;;;;;;;6.39;100.00;100067.56;5042349;28;20378;-85
2023/04/16 15:09:18;;;;;;;;;;;;;;;6.19;100.00;100076.75;5023265;28;19916;-86
2023/04/16 15:11:44;;;;;;;;;;;;;;;6.01;100.00;100067.44;5042025;28;19921;-86
2023/04/16 15:16:47;;;;;;;;;;;;;;;5.78;100.00;100073.13;5049961;28;20471;-87
2023/04/16 15:21:44;;;;;;;;;;;;;;;5.61;100.00;100084.78;5088247;22;19936;-87
2023/04/16 15:24:10;;;;;;;;;;;;;;;5.51;100.00;100085.88;5022937;28;19917;-86
2023/04/16 15:26:37;;;;;;;;;;;;;;;5.40;100.00;100083.41;5042386;28;19920;-87
2023/04/16 15:29:15;;;;;;;;;;;;;;;;;;;;;
2023/04/16 15:31:59;;;;;;;;;;;;;;;5.33;100.00;100087.06;5040010;28;20204;-92
2023/04/16 15:34:56;;;;;;;;;;;;;;;5.20;100.00;100089.00;5041622;28;20427;-87
2023/04/16 15:37:22;;;;;;;;;;;;;;;5.15;100.00;100096.06;5019886;28;19917;-87
2023/04/16 15:39:56;;;;;;;;;;;;;;;5.12;100.00;100090.00;5043375;28;20287;-87
2023/04/16 15:42:29;;;;;;;;;;;;;;;5.13;100.00;100100.50;5027890;28;19924;-86
2023/04/16 15:45:25;;;;;;;;;;;;;;;;;;;;;
2023/04/16 15:47:50;;;;;;;;;;;;;;;4.99;100.00;100105.94;5042785;28;20295;-85
2023/04/16 15:50:16;;;;;;;;;;;;;;;5.03;100.00;100105.03;5041885;28;19921;-85
2023/04/16 15:52:41;;;;;;;;;;;;;;;4.91;100.00;100106.09;5023156;28;19923;-84
2023/04/16 15:55:07;;;;;;;;;;;;;;;5.68;100.00;100110.97;5040426;28;19925;-87
2023/04/16 15:57:32;;;;;;;;;;;;;;;6.24;100.00;100110.84;5047158;28;20008;-86
2023/04/16 16:00:00;;;;;;;;;;;;;;;6.51;100.00;100114.69;5039210;28;20703;-86
2023/04/16 16:02:29;;;;;;;;;;;;;;;6.76;100.00;100114.16;5041986;28;19944;-86
2023/04/16 16:04:54;;;;;;;;;;;;;;;6.89;100.00;100120.88;5026482;28;19974;-85
2023/04/16 16:07:20;;;;;;;;;;;;;;;7.01;100.00;100115.34;5044149;28;20386;-86
2023/04/16 16:09:46;;;;;;;;;;;;;;;7.12;100.00;100124.78;5044544;28;19932;-86
2023/04/16 16:12:14;;;;;;;;;;;;;;;7.27;100.00;100124.41;5045446;28;19970;-88
2023/04/16 16:14:51;;;;;;;;;;;;;;;7.34;100.00;100123.38;5040442;28;19927;-87
2023/04/16 16:17:19;;;;;;;;;;;;;;;7.39;100.00;100126.75;5020875;28;20360;-87
2023/04/16 16:19:47;;;;;;;;;;;;;;;7.48;100.00;100124.78;5043560;28;21655;-87
2023/04/16 16:22:12;;;;;;;;;;;;;;;7.54;100.00;100129.91;5030830;28;19931;-87
2023/04/16 16:24:42;;;;;;;;;;;;;;;7.61;100.00;100131.47;5029454;28;20342;-87
2023/04/16 16:27:11;;;;;;;;;;;;;;;7.67;100.00;100131.34;5041560;28;20016;-93
2023/04/16 16:29:36;;;;;;;;;;;;;;;7.77;100.00;100138.13;5025344;28;19963;-86
2023/04/16 16:32:24;;;;;;;;;;;;;;;7.81;100.00;100142.41;5043167;28;20313;-86
2023/04/16 16:35:30;;;;;;;;;;;;;;;7.89;100.00;100142.19;5029392;28;19939;-86
2023/04/16 16:38:00;;;;;;;;;;;;;;;7.94;100.00;100136.81;5048880;28;20011;-87
2023/04/16 16:40:33;;;;;;;;;;;;;;;8.02;100.00;100134.81;5045246;28;19917;-86
2023/04/16 16:42:58;;;;;;;;;;;;;;;8.07;100.00;100135.56;5027007;28;19932;-86
2023/04/16 16:45:25;;;;;;;;;;;;;;;8.11;100.00;100142.50;5047461;28;19932;-84
2023/04/16 16:47:54;;;;;;;;;;;;;;;8.15;100.00;100140.63;5044202;28;19921;-88
2023/04/16 16:50:34;;;;;;;;;;;;;;;;;;;;;
2023/04/16 16:53:02;;;;;;;;;;;;;;;8.22;100.00;100149.25;5063881;22;19925;-89
2023/04/16 16:55:35;;;;;;;;;;;;;;;8.27;100.00;100144.72;5007657;28;20368;-87
2023/04/16 16:58:14;;;;;;;;;;;;;;;8.32;100.00;100142.81;4997888;28;19925;-88
2023/04/16 17:00:45;;;;;;;;;;;;;;;8.34;100.00;100146.28;5025120;28;19972;-91
2023/04/16 17:03:10;;;;;;;;;;;;;;;8.39;100.00;100151.44;5026125;28;20332;-88
2023/04/16 17:05:40;;;;;;;;;;;;;;;8.40;100.00;100154.03;5008761;28;20000;-87
2023/04/16 17:08:10;;;;;;;;;;;;;;;8.37;100.00;100146.19;5026926;28;19925;-87
2023/04/16 17:10:36;;;;;;;;;;;;;;;8.41;100.00;100155.78;5012924;28;19926;-88
2023/04/16 17:13:01;;;;;;;;;;;;;;;8.41;100.00;100155.78;5025417;28;19925;-88
2023/04/16 17:15:54;;;;;;;;;;;;;;;;;;;;;
2023/04/16 17:18:30;;;;;;;;;;;;;;;8.46;100.00;100147.75;5026703;28;19922;-87
2023/04/16 17:21:13;;;;;;;;;;;;;;;8.46;100.00;100153.91;5007891;28;20011;-87
2023/04/16 17:27:21;;;;;;;;;;;;;;;;;;;;;
2023/04/16 17:32:53;;;;;;;;;;;;;;;8.54;100.00;100148.41;5012036;28;19944;-86
2023/04/16 17:35:33;;;;;;;;;;;;;;;;;;;;;
2023/04/16 17:38:09;;;;;;;;;;;;;;;;;;;;;
2023/04/16 17:40:37;;;;;;;;;;;;;;;8.57;100.00;100155.34;5022713;28;19917;-88
2023/04/16 17:43:07;;;;;;;;;;;;;;;8.60;100.00;100157.91;5023254;28;19961;-87
2023/04/16 17:48:09;;;;;;;;;;;;;;;8.60;100.00;100166.72;5051291;22;19928;-87
2023/04/16 17:50:40;;;;;;;;;;;;;;;8.59;100.00;100161.47;5049667;28;19917;-87
2023/04/16 17:53:06;;;;;;;;;;;;;;;8.61;100.00;100162.28;5049582;28;19928;-88
2023/04/16 17:58:09;;;;;;;;;;;;;;;;;;;;;
2023/04/16 18:00:35;;;;;;;;;;;;;;;8.66;100.00;100165.66;5043175;28;19927;-84
2023/04/16 18:03:12;;;;;;;;;;;;;;;;;;;;;
2023/04/16 18:05:42;;;;;;;;;;;;;;;8.70;100.00;100167.31;5043549;28;19921;-87
2023/04/16 18:08:10;;;;;;;;;;;;;;;8.68;100.00;100169.09;5025521;28;19968;-87
2023/04/16 18:10:43;;;;;;;;;;;;;;;8.72;100.00;100174.25;5023761;28;19956;-87
2023/04/16 18:13:47;;;;;;;;;;;;;;;8.72;100.00;100176.06;5033240;28;19917;-91
2023/04/16 18:16:13;;;;;;;;;;;;;;;8.73;100.00;100177.78;5002098;28;19922;-86
2023/04/16 18:18:38;;;;;;;;;;;;;;;8.74;100.00;100168.94;5001291;28;20021;-86
2023/04/16 18:21:14;;;;;;;;;;;;;;;;;;;;;
2023/04/16 18:23:42;;;;;;;;;;;;;;;8.73;100.00;100169.88;5001627;28;19921;-86
2023/04/16 18:26:12;;;;;;;;;;;;;;;8.76;100.00;100183.00;5000293;28;19918;-87
2023/04/16 18:28:38;;;;;;;;;;;;;;;8.76;100.00;100177.72;5039727;28;19917;-85
2023/04/16 18:31:05;;;;;;;;;;;;;;;8.76;100.00;100183.00;5025228;28;19921;-87
2023/04/16 18:33:33;;;;;;;;;;;;;;;8.77;100.00;100184.69;5025126;28;19921;-86
2023/04/16 18:35:59;;;;;;;;;;;;;;;8.79;100.00;100177.63;5042348;28;19927;-85
2023/04/16 18:38:58;;;;;;;;;;;;;;;8.79;100.00;100184.66;5043178;28;19960;-86
2023/04/16 18:41:23;;;;;;;;;;;;;;;8.80;100.00;100189.03;5026069;28;19928;-86
2023/04/16 18:43:56;;;;;;;;;;;;;;;8.80;100.00;100189.91;5042343;28;19917;-86
2023/04/16 18:46:21;;;;;;;;;;;;;;;8.81;100.00;100188.16;5042787;28;19921;-86
2023/04/16 18:48:52;;;;;;;;;;;;;;;8.81;100.00;100191.66;5043299;28;19944;-86
2023/04/16 18:51:26;;;;;;;;;;;;;;;8.82;100.00;100197.78;5043234;28;19991;-86
2023/04/16 18:53:51;;;;;;;;;;;;;;;8.81;100.00;100198.72;5022842;28;20751;-85
2023/04/16 18:56:16;;;;;;;;;;;;;;;8.82;100.00;100193.38;5042879;28;19921;-86
2023/04/16 18:58:44;;;;;;;;;;;;;;;8.53;100.00;100202.97;5042643;28;20339;-86
2023/04/16 19:01:12;;;;;;;;;;;;;;;7.06;100.00;100203.06;5024383;28;19920;-87
2023/04/16 19:03:40;;;;;;;;;;;;;;;6.52;100.00;100205.94;5024461;28;20571;-86
2023/04/16 19:06:15;;;;;;;;;;;;;;;6.17;100.00;100204.84;5025984;28;20002;-86
2023/04/16 19:08:40;;;;;;;;;;;;;;;6.04;100.00;100206.81;5024191;28;19923;-87
2023/04/16 19:11:08;;;;;;;;;;;;;;;5.87;100.00;100212.34;5025370;28;19929;-86
2023/04/16 19:14:06;;;;;;;;;;;;;;;;;;;;;
2023/04/16 19:16:40;;;;;;;;;;;;;;;5.74;100.00;100210.78;5042529;28;19921;-86
2023/04/16 19:19:05;;;;;;;;;;;;;;;5.64;100.00;100210.09;5042050;28;19917;-87
2023/04/16 19:21:33;;;;;;;;;;;;;;;5.48;100.00;100212.06;5041374;28;20007;-87
2023/04/16 19:24:07;;;;;;;;;;;;;;;5.44;100.00;100213.00;5024007;28;20298;-88
2023/04/16 19:26:32;;;;;;;;;;;;;;;5.34;100.00;100212.28;5042180;28;19925;-88
2023/04/16 19:29:18;;;;;;;;;;;;;;;;;;;;;
2023/04/16 19:32:11;;;;;;;;;;;;;;;;;;;;;
2023/04/16 19:34:47;;;;;;;;;;;;;;;;;;;;;
2023/04/16 19:37:24;;;;;;;;;;;;;;;5.22;100.00;100213.34;5042501;28;19923;-86
2023/04/16 19:40:03;;;;;;;;;;;;;;;5.09;100.00;100206.53;5040943;28;19940;-87
2023/04/16 19:42:57;;;;;;;;;;;;;;;5.08;100.00;100217.91;5025532;28;19920;-87
2023/04/16 19:45:26;;;;;;;;;;;;;;;5.02;100.00;100220.63;5043867;28;19921;-87
2023/04/16 19:47:51;;;;;;;;;;;;;;;5.38;100.00;100216.59;5041356;28;19967;-87
2023/04/16 19:50:21;;;;;;;;;;;;;;;6.05;100.00;100220.81;5023678;28;19921;-87
2023/04/16 19:52:50;;;;;;;;;;;;;;;6.43;100.00;100237.69;5042816;28;19974;-86
2023/04/16 19:55:33;;;;;;;;;;;;;;;;;;;;;
2023/04/16 19:58:09;;;;;;;;;;;;;;;6.84;100.00;100223.72;5040682;28;19925;-87
2023/04/16 20:00:36;;;;;;;;;;;;;;;6.99;100.00;100221.66;5042125;28;19995;-87
2023/04/16 20:03:04;;;;;;;;;;;;;;;7.06;100.00;100216.22;5048312;28;20015;-87
2023/04/16 20:05:32;;;;;;;;;;;;;;;7.20;100.00;100220.34;5042766;28;19927;-87
2023/04/16 20:08:00;;;;;;;;;;;;;;;7.30;100.00;100227.13;5031646;28;19925;-87
2023/04/16 20:10:30;;;;;;;;;;;;;;;7.39;100.00;100224.31;5031394;28;19921;-88
2023/04/16 20:13:05;;;;;;;;;;;;;;;7.49;100.00;100224.97;5030342;28;19961;-87
2023/04/16 20:15:30;;;;;;;;;;;;;;;7.59;100.00;100222.97;5032376;28;20367;-87
2023/04/16 20:17:58;;;;;;;;;;;;;;;7.68;100.00;100219.25;5031989;28;19964;-87
2023/04/16 20:20:26;;;;;;;;;;;;;;;7.77;100.00;100225.19;5032668;28;20383;-87
2023/04/16 20:23:14;;;;;;;;;;;;;;;7.84;100.00;100225.03;5015915;28;20411;-87
2023/04/16 20:26:05;;;;;;;;;;;;;;;;;;;;;
2023/04/16 20:31:16;;;;;;;;;;;;;;;8.01;100.00;100214.91;5031972;28;20016;-87
2023/04/16 20:33:44;;;;;;;;;;;;;;;8.05;100.00;100213.91;5015722;28;19992;-88
2023/04/16 20:36:12;;;;;;;;;;;;;;;8.09;100.00;100215.59;5032257;28;19929;-88
2023/04/16 20:38:41;;;;;;;;;;;;;;;8.14;100.00;100216.31;5019590;28;19920;-88
2023/04/16 20:41:21;;;;;;;;;;;;;;;8.18;100.00;100214.47;5043308;28;19921;-87
2023/04/16 20:44:04;;;;;;;;;;;;;;;8.23;100.00;100224.91;5045163;28;19927;-87
2023/04/16 20:46:53;;;;;;;;;;;;;;;8.26;100.00;100219.56;5027185;28;19921;-88
2023/04/16 20:49:31;;;;;;;;;;;;;;;;;;;;;
2023/04/16 20:52:02;;;;;;;;;;;;;;;8.32;100.00;100227.31;5045639;28;19917;-88
2023/04/16 20:54:37;;;;;;;;;;;;;;;8.35;100.00;100221.94;5026365;28;19917;-87
2023/04/16 20:57:02;;;;;;;;;;;;;;;8.41;100.00;100216.50;5031436;28;19922;-87
2023/04/16 20:59:35;;;;;;;;;;;;;;;8.48;100.00;100223.38;5024448;28;20419;-87
2023/04/16 21:02:04;;;;;;;;;;;;;;;8.49;100.00;100218.97;5024715;28;19921;-87
2023/04/16 21:05:02;;;;;;;;;;;;;;;;;;;;;
2023/04/16 21:07:33;;;;;;;;;;;;;;;8.52;100.00;100219.75;5025005;28;19927;-88
2023/04/16 21:10:04;;;;;;;;;;;;;;;8.53;100.00;100215.31;5021688;28;19921;-88
2023/04/16 21:12:57;;;;;;;;;;;;;;;8.57;100.00;100221.38;5024213;28;20361;-88
2023/04/16 21:15:38;;;;;;;;;;;;;;;8.58;100.00;100216.06;5023703;28;20360;-87
2023/04/16 21:18:19;;;;;;;;;;;;;;;;;;;;;
2023/04/16 21:23:47;;;;;;;;;;;;;;;;;;;;;
2023/04/16 21:26:22;;;;;;;;;;;;;;;8.64;100.00;100209.75;5023799;28;20285;-87
2023/04/16 21:28:58;;;;;;;;;;;;;;;8.66;100.00;100208.81;5023002;28;19971;-88
2023/04/16 21:31:48;;;;;;;;;;;;;;;8.68;100.00;100214.91;5023925;28;19927;-88
2023/04/16 21:34:24;;;;;;;;;;;;;;;8.72;100.00;100213.03;5027228;28;19933;-88
2023/04/16 21:37:10;;;;;;;;;;;;;;;;;;;;;
2023/04/16 21:39:43;;;;;;;;;;;;;;;8.77;100.00;100215.56;5023214;28;20376;-88
2023/04/16 21:42:21;;;;;;;;;;;;;;;;;;;;;
2023/04/16 21:47:47;;;;;;;;;;;;;;;8.81;100.00;100214.56;5018133;28;19928;-88
2023/04/16 21:50:25;;;;;;;;;;;;;;;8.81;100.00;100212.78;5024893;28;20682;-87
2023/04/16 21:56:16;;;;;;;;;;;;;;;8.81;100.00;100212.78;5017382;28;19917;-88
2023/04/16 21:58:41;;;;;;;;;;;;;;;8.84;100.00;100214.44;5041574;28;19921;-87
2023/04/16 22:01:06;;;;;;;;;;;;;;;8.85;100.00;100205.63;5042605;28;19927;-88
2023/04/16 22:03:33;;;;;;;;;;;;;;;8.87;100.00;100207.31;5025358;28;19917;-88
2023/04/16 22:06:17;;;;;;;;;;;;;;;8.81;100.00;100211.94;5043567;28;20012;-89
2023/04/16 22:08:57;;;;;;;;;;;;;;;7.20;100.00;100221.22;5029387;28;20442;-89
2023/04/16 22:11:42;;;;;;;;;;;;;;;6.58;100.00;100216.34;5042348;28;19917;-88
2023/04/16 22:14:30;;;;;;;;;;;;;;;6.31;100.00;100220.38;5043026;28;19920;-89
2023/04/16 22:16:59;;;;;;;;;;;;;;;6.18;100.00;100219.72;5042372;28;19932;-90
2023/04/16 22:19:27;;;;;;;;;;;;;;;6.00;100.00;100224.41;5024500;28;19917;-89
2023/04/16 22:22:07;;;;;;;;;;;;;;;5.90;100.00;100221.94;5045324;28;19928;-89
2023/04/16 22:25:03;;;;;;;;;;;;;;;5.78;100.00;100223.88;5048903;28;19920;-89
2023/04/16 22:27:28;;;;;;;;;;;;;;;5.60;100.00;100219.78;5037957;28;20348;-93
2023/04/16 22:29:56;;;;;;;;;;;;;;;5.54;100.00;100225.13;5025181;28;20007;-89
2023/04/16 22:32:32;;;;;;;;;;;;;;;5.51;100.00;100219.91;5041458;28;19943;-90
2023/04/16 22:35:04;;;;;;;;;;;;;;;5.43;100.00;100213.91;5042669;28;19928;-88
2023/04/16 22:37:34;;;;;;;;;;;;;;;5.36;100.00;100212.25;5041570;28;19917;-88
2023/04/16 22:40:05;;;;;;;;;;;;;;;5.30;100.00;100210.59;5048627;28;20388;-89
2023/04/16 22:45:32;;;;;;;;;;;;;;;5.22;100.00;100208.06;5037258;28;19920;-88
2023/04/16 22:48:13;;;;;;;;;;;;;;;;;;;;;
2023/04/16 22:51:06;;;;;;;;;;;;;;;;;;;;;
2023/04/16 22:53:50;;;;;;;;;;;;;;;5.08;100.00;100202.16;5042634;28;19924;-88
2023/04/16 22:56:27;;;;;;;;;;;;;;;5.01;100.00;100197.84;5040940;28;19921;-89
2023/04/16 22:59:03;;;;;;;;;;;;;;;4.97;100.00;100201.44;5042280;28;20004;-88
